Time;durP1;ratioP1;P1;durP2;ratioP2;P2;SDS_P1;SDS_P2;PMS_P1;PMS_P2;Temp;Humidity;BMP_temperature;BMP_pressure;BME280_temperature;BME280_humidity;BME280_pressure;Samples;Min_cycle;Max_cycle;Signal;HPM_P1;HPM_P2
2023/07/24 00:00:24;;;;;;;10.23;5.15;;;;;;;18.19;100.00;99941.00;4966213;28;20086;-79
2023/07/24 00:02:53;;;;;;;7.18;4.95;;;;;;;18.14;100.00;99930.28;4964109;28;20126;-78
2023/07/24 00:05:19;;;;;;;8.90;5.38;;;;;;;18.06;100.00;99926.09;4970174;28;20044;-80
2023/07/24 00:07:46;;;;;;;8.65;5.50;;;;;;;17.93;100.00;99926.25;4964775;28;20134;-80
2023/07/24 00:10:13;;;;;;;12.82;5.50;;;;;;;17.82;100.00;99919.84;4972311;28;20137;-80
2023/07/24 00:12:43;;;;;;;7.57;5.07;;;;;;;17.83;100.00;99918.03;4972183;28;20075;-80
2023/07/24 00:15:11;;;;;;;9.55;5.00;;;;;;;17.82;100.00;99913.75;4969650;28;20083;-82
2023/07/24 00:17:37;;;;;;;11.80;5.30;;;;;;;17.81;100.00;99915.59;4977435;28;20504;-80
2023/07/24 00:20:04;;;;;;;12.43;5.43;;;;;;;17.73;100.00;99920.34;4976894;28;20074;-78
2023/07/24 00:22:31;;;;;;;8.57;5.10;;;;;;;17.71;100.00;99922.41;4973165;28;20076;-79
2023/07/24 00:24:58;;;;;;;11.38;5.60;;;;;;;17.68;100.00;99920.22;4973107;28;20130;-81
2023/07/24 00:27:24;;;;;;;8.63;5.20;;;;;;;17.65;100.00;99925.91;4975309;28;20127;-80
2023/07/24 00:29:52;;;;;;;10.48;5.45;;;;;;;17.55;100.00;99913.97;4978357;28;20078;-79
2023/07/24 00:32:19;;;;;;;8.30;5.00;;;;;;;17.53;100.00;99921.31;4975220;28;20079;-81
2023/07/24 00:34:45;;;;;;;10.23;5.63;;;;;;;17.52;100.00;99903.03;4969113;28;20097;-80
2023/07/24 00:37:12;;;;;;;10.02;5.60;;;;;;;17.69;100.00;99909.41;4975550;28;20110;-80
2023/07/24 00:39:38;;;;;;;11.98;5.88;;;;;;;17.70;100.00;99904.91;4974605;28;20427;-79
2023/07/24 00:42:06;;;;;;;9.82;6.45;;;;;;;17.76;100.00;99909.34;4978575;28;20115;-81
2023/07/24 00:44:32;;;;;;;8.52;5.78;;;;;;;17.77;100.00;99903.81;4978135;28;20047;-82
2023/07/24 00:47:00;;;;;;;8.02;6.22;;;;;;;17.83;100.00;99902.94;4977759;28;20066;-81
2023/07/24 00:49:27;;;;;;;9.85;5.72;;;;;;;17.86;100.00;99899.06;4983150;28;20074;-80
2023/07/24 00:51:54;;;;;;;10.20;5.82;;;;;;;17.90;100.00;99897.59;4982203;28;20074;-80
2023/07/24 00:54:23;;;;;;;11.60;6.07;;;;;;;17.77;100.00;99868.63;4973985;28;20552;-80
2023/07/24 00:56:49;;;;;;;18.33;7.47;;;;;;;17.92;100.00;99892.88;4976723;28;20070;-81
2023/07/24 00:59:16;;;;;;;9.88;6.40;;;;;;;17.92;100.00;99884.94;4976991;28;20087;-82
2023/07/24 01:01:43;;;;;;;10.20;6.18;;;;;;;17.92;100.00;99884.13;4969994;28;20435;-80
2023/07/24 01:04:11;;;;;;;9.73;6.07;;;;;;;17.80;100.00;99876.13;4970330;28;20133;-80
2023/07/24 01:06:38;;;;;;;11.20;6.05;;;;;;;17.75;100.00;99865.38;4972507;28;20050;-79
2023/07/24 01:09:05;;;;;;;8.88;6.03;;;;;;;17.67;100.00;99863.03;4971826;28;20118;-80
2023/07/24 01:11:37;;;;;;;11.77;6.90;;;;;;;17.59;100.00;99854.31;4969801;28;20059;-80
2023/07/24 01:14:13;;;;;;;15.57;6.75;;;;;;;17.51;100.00;99856.44;4963764;28;20055;-79
2023/07/24 01:16:42;;;;;;;8.70;6.40;;;;;;;17.46;100.00;99857.13;4968846;28;20051;-79
2023/07/24 01:19:17;;;;;;;11.38;6.75;;;;;;;17.38;100.00;99848.66;4968600;28;20074;-81
2023/07/24 01:22:03;;;;;;;9.70;6.60;;;;;;;17.32;100.00;99834.50;4963669;28;20047;-79
2023/07/24 01:24:37;;;;;;;10.30;6.53;;;;;;;17.38;100.00;99844.19;4964698;28;20044;-77
2023/07/24 01:27:05;;;;;;;9.30;6.30;;;;;;;17.36;100.00;99848.09;4968616;28;20051;-79
2023/07/24 01:29:33;;;;;;;13.13;6.68;;;;;;;17.29;100.00;99845.50;4967354;28;20047;-78
2023/07/24 01:31:59;;;;;;;9.80;5.95;;;;;;;17.25;100.00;99831.09;4969292;28;20050;-79
2023/07/24 01:34:26;;;;;;;9.23;6.63;;;;;;;17.23;100.00;99831.31;4966159;28;20133;-79
2023/07/24 01:36:53;;;;;;;9.20;6.63;;;;;;;17.23;100.00;99823.38;4971004;28;20130;-80
2023/07/24 01:39:21;;;;;;;12.60;6.70;;;;;;;17.19;100.00;99821.41;4968632;28;20144;-78
2023/07/24 01:41:48;;;;;;;12.20;6.90;;;;;;;17.19;100.00;99826.69;4960807;28;20043;-82
2023/07/24 01:44:16;;;;;;;13.00;7.13;;;;;;;17.11;100.00;99814.53;4971859;28;20136;-79
2023/07/24 01:46:42;;;;;;;11.48;6.75;;;;;;;17.21;100.00;99812.22;4968985;28;20130;-80
2023/07/24 01:49:09;;;;;;;11.80;7.18;;;;;;;17.24;100.00;99821.56;4959329;28;20134;-80
2023/07/24 01:51:36;;;;;;;12.57;6.43;;;;;;;17.31;100.00;99814.38;4957790;28;20114;-79
2023/07/24 01:54:02;;;;;;;11.02;6.40;;;;;;;17.33;100.00;99816.78;4970373;28;20434;-79
2023/07/24 01:56:29;;;;;;;9.07;7.38;;;;;;;17.34;100.00;99813.91;4960792;28;20149;-80
2023/07/24 01:58:55;;;;;;;13.68;7.15;;;;;;;17.36;100.00;99811.88;4971239;28;20054;-80
2023/07/24 02:01:23;;;;;;;9.70;6.50;;;;;;;17.37;100.00;99810.03;4962506;28;20089;-77
2023/07/24 02:03:50;;;;;;;8.60;6.25;;;;;;;17.33;100.00;99806.22;4970881;28;20418;-80
2023/07/24 02:06:16;;;;;;;14.48;6.78;;;;;;;17.34;100.00;99805.19;4969483;28;20428;-79
2023/07/24 02:08:48;;;;;;;11.82;7.07;;;;;;;17.33;100.00;99811.50;4969626;28;20085;-80
2023/07/24 02:11:15;;;;;;;12.43;7.10;;;;;;;17.39;100.00;99803.50;4969078;28;20050;-79
2023/07/24 02:13:41;;;;;;;11.52;7.30;;;;;;;17.46;100.00;99804.22;4972054;28;20130;-79
2023/07/24 02:16:08;;;;;;;11.15;6.85;;;;;;;17.50;100.00;99802.75;4966132;28;20074;-78
2023/07/24 02:18:36;;;;;;;9.55;6.53;;;;;;;17.44;100.00;99789.63;4968932;28;20078;-80
2023/07/24 02:21:03;;;;;;;11.07;7.07;;;;;;;17.39;100.00;99781.53;4970378;28;20125;-79
2023/07/24 02:23:29;;;;;;;10.43;6.72;;;;;;;17.40;100.00;99783.97;4971082;28;20050;-79
2023/07/24 02:25:56;;;;;;;13.43;6.88;;;;;;;17.47;100.00;99784.69;4966666;28;20459;-78
2023/07/24 02:28:22;;;;;;;16.02;7.28;;;;;;;17.52;100.00;99782.16;4970603;28;20507;-79
2023/07/24 02:30:50;;;;;;;8.93;6.53;;;;;;;17.55;100.00;99780.91;4969592;28;20090;-79
2023/07/24 02:33:16;;;;;;;13.52;8.02;;;;;;;17.57;100.00;99790.25;4969303;28;20055;-76
2023/07/24 02:35:44;;;;;;;12.02;7.30;;;;;;;17.52;100.00;99779.53;4969896;28;20486;-79
2023/07/24 02:38:11;;;;;;;14.45;6.93;;;;;;;17.55;100.00;99781.72;4966524;28;20130;-77
2023/07/24 02:40:38;;;;;;;13.57;6.90;;;;;;;17.58;100.00;99781.28;4969224;28;20527;-78
2023/07/24 02:43:04;;;;;;;16.75;7.35;;;;;;;17.53;100.00;99773.19;4971511;28;20046;-78
2023/07/24 02:45:31;;;;;;;13.25;6.93;;;;;;;17.57;100.00;99774.38;4971246;28;20464;-79
2023/07/24 02:47:57;;;;;;;10.70;6.80;;;;;;;17.61;100.00;99773.94;4979054;28;20114;-80
2023/07/24 02:50:24;;;;;;;12.57;7.43;;;;;;;17.69;100.00;99760.44;4977692;28;20138;-78
2023/07/24 02:52:52;;;;;;;14.60;7.20;;;;;;;17.65;100.00;99746.00;4971126;28;20050;-78
2023/07/24 02:55:19;;;;;;;12.20;6.80;;;;;;;17.73;100.00;99764.25;4966665;28;20062;-77
2023/07/24 02:57:45;;;;;;;12.05;6.93;;;;;;;17.69;100.00;99750.66;4968580;28;20078;-77
2023/07/24 03:00:13;;;;;;;11.23;6.53;;;;;;;17.68;100.00;99756.19;4962352;28;20049;-78
2023/07/24 03:02:40;;;;;;;10.93;7.22;;;;;;;17.70;100.00;99764.69;4970858;28;20047;-78
2023/07/24 03:05:07;;;;;;;10.15;6.70;;;;;;;17.71;100.00;99768.97;4971528;28;20153;-78
2023/07/24 03:07:34;;;;;;;10.65;7.00;;;;;;;17.69;100.00;99760.44;4970781;28;20078;-78
2023/07/24 03:10:02;;;;;;;14.73;6.95;;;;;;;17.60;100.00;99749.31;4970699;28;20130;-78
2023/07/24 03:12:29;;;;;;;10.77;7.10;;;;;;;17.53;100.00;99746.75;4963068;28;20047;-76
2023/07/24 03:14:55;;;;;;;17.30;7.65;;;;;;;17.57;100.00;99760.34;4959503;28;20047;-78
2023/07/24 03:17:23;;;;;;;13.20;6.95;;;;;;;17.56;100.00;99756.06;4954195;29;20138;-77
2023/07/24 03:19:50;;;;;;;12.15;7.35;;;;;;;17.50;100.00;99757.78;4954351;28;20058;-78
2023/07/24 03:22:17;;;;;;;10.68;6.90;;;;;;;17.49;100.00;99756.16;4943305;28;20082;-77
2023/07/24 03:24:43;;;;;;;11.85;7.28;;;;;;;17.44;100.00;99752.59;4932792;29;20090;-77
2023/07/24 03:27:11;;;;;;;13.02;6.95;;;;;;;17.45;100.00;99751.56;4940945;29;20047;-78
2023/07/24 03:29:39;;;;;;;12.75;6.82;;;;;;;17.36;100.00;99755.53;4936786;29;20120;-77
2023/07/24 03:32:06;;;;;;;12.63;7.05;;;;;;;17.29;100.00;99742.38;4933510;28;20055;-78
2023/07/24 03:34:32;;;;;;;15.63;7.15;;;;;;;17.25;100.00;99755.22;4933031;29;20191;-78
2023/07/24 03:36:59;;;;;;;15.43;7.82;;;;;;;17.22;100.00;99754.88;4933950;29;20047;-76
2023/07/24 03:39:26;;;;;;;9.32;6.97;;;;;;;17.15;100.00;99751.47;4934257;29;20490;-77
2023/07/24 03:41:52;;;;;;;13.07;7.63;;;;;;;17.18;100.00;99751.03;4934945;29;20078;-78
2023/07/24 03:44:20;;;;;;;15.00;7.18;;;;;;;17.18;100.00;99745.75;4934788;29;20062;-77
2023/07/24 03:46:47;;;;;;;15.95;7.70;;;;;;;17.23;100.00;99759.94;4930150;29;20420;-78
2023/07/24 03:49:13;;;;;;;12.05;7.88;;;;;;;17.27;100.00;99762.94;4935649;29;20142;-76
2023/07/24 03:51:40;;;;;;;14.80;7.22;;;;;;;17.30;100.00;99759.06;4934116;29;20078;-78
2023/07/24 03:54:06;;;;;;;11.35;7.53;;;;;;;17.31;100.00;99745.63;4934345;29;20486;-78
2023/07/24 03:56:33;;;;;;;9.15;7.07;;;;;;;17.25;100.00;99749.94;4934323;29;20496;-77
2023/07/24 03:59:00;;;;;;;15.60;8.50;;;;;;;17.26;100.00;99748.09;4934397;29;20043;-76
2023/07/24 04:01:28;;;;;;;14.55;7.80;;;;;;;17.24;100.00;99739.59;4939532;29;20138;-76
2023/07/24 04:03:54;;;;;;;13.35;8.15;;;;;;;17.17;100.00;99729.09;4934181;29;20043;-77
2023/07/24 04:06:21;;;;;;;13.43;7.40;;;;;;;17.15;100.00;99728.50;4933931;29;20244;-77
2023/07/24 04:08:47;;;;;;;12.90;7.45;;;;;;;17.22;100.00;99733.72;4934223;29;20044;-76
2023/07/24 04:11:14;;;;;;;12.00;7.43;;;;;;;17.17;100.00;99723.00;4934014;29;20060;-76
2023/07/24 04:13:41;;;;;;;13.20;7.15;;;;;;;17.13;100.00;99717.34;4933407;29;20472;-77
2023/07/24 04:16:07;;;;;;;12.57;7.55;;;;;;;17.21;100.00;99724.16;4949545;28;20049;-77
2023/07/24 04:18:35;;;;;;;13.82;7.75;;;;;;;17.24;100.00;99724.53;4933895;28;20138;-78
2023/07/24 04:21:02;;;;;;;13.10;7.93;;;;;;;17.35;100.00;99722.19;4933286;29;20051;-77
2023/07/24 04:23:28;;;;;;;11.60;6.88;;;;;;;17.45;100.00;99733.06;4902283;28;1108426;-77
2023/07/24 04:25:55;;;;;;;11.00;7.07;;;;;;;17.46;100.00;99729.38;4934406;29;20252;-75
2023/07/24 04:28:22;;;;;;;15.90;7.57;;;;;;;17.46;100.00;99722.25;4933509;29;20079;-77
2023/07/24 04:30:48;;;;;;;13.75;7.28;;;;;;;17.48;100.00;99724.66;4933566;29;20146;-77
2023/07/24 04:33:15;;;;;;;14.40;7.30;;;;;;;17.49;100.00;99729.72;4938391;28;20122;-78
2023/07/24 04:35:43;;;;;;;13.43;7.15;;;;;;;17.53;100.00;99725.59;4934239;28;20158;-77
2023/07/24 04:38:09;;;;;;;12.65;7.47;;;;;;;17.56;100.00;99717.22;4933233;29;20090;-76
2023/07/24 04:40:36;;;;;;;12.85;7.32;;;;;;;17.59;100.00;99726.53;4933711;29;20055;-78
2023/07/24 04:43:02;;;;;;;13.25;7.70;;;;;;;17.58;100.00;99727.56;4934637;29;20417;-78
2023/07/24 04:45:29;;;;;;;13.18;7.80;;;;;;;17.67;100.00;99741.34;4939182;29;20424;-77
2023/07/24 04:47:56;;;;;;;11.85;7.25;;;;;;;17.68;100.00;99742.94;4933814;29;20043;-77
2023/07/24 04:50:22;;;;;;;13.48;7.22;;;;;;;17.71;100.00;99740.66;4934067;29;20138;-79
2023/07/24 04:52:50;;;;;;;13.95;8.65;;;;;;;17.61;100.00;99732.41;4934295;29;20134;-77
2023/07/24 04:55:17;;;;;;;13.82;7.47;;;;;;;17.70;100.00;99746.19;4934486;29;20059;-77
2023/07/24 04:57:43;;;;;;;14.40;8.05;;;;;;;17.74;100.00;99753.44;4934965;28;20078;-76
2023/07/24 05:00:11;;;;;;;11.07;7.35;;;;;;;17.74;100.00;99756.09;4933972;29;20492;-76
2023/07/24 05:02:38;;;;;;;11.38;7.65;;;;;;;17.74;100.00;99757.94;4936388;29;20142;-78
2023/07/24 05:05:06;;;;;;;12.35;7.60;;;;;;;17.81;100.00;99758.66;4940667;28;20320;-77
2023/07/24 05:07:33;;;;;;;10.20;6.90;;;;;;;17.86;100.00;99756.94;4936704;29;20047;-78
2023/07/24 05:10:01;;;;;;;12.25;7.70;;;;;;;17.92;100.00;99752.59;4933544;29;20134;-79
2023/07/24 05:12:28;;;;;;;10.60;7.22;;;;;;;17.94;100.00;99757.66;4936601;29;20431;-79
2023/07/24 05:14:55;;;;;;;12.48;7.28;;;;;;;18.07;100.00;99766.22;4934323;29;20050;-76
2023/07/24 05:17:21;;;;;;;10.73;7.00;;;;;;;18.21;100.00;99774.78;4934077;29;20058;-77
2023/07/24 05:19:48;;;;;;;12.18;7.57;;;;;;;18.36;100.00;99769.06;4933714;29;20520;-78
2023/07/24 05:22:14;;;;;;;10.15;7.90;;;;;;;18.58;100.00;99775.41;4933962;29;20139;-77
2023/07/24 05:24:41;;;;;;;14.80;7.40;;;;;;;18.85;100.00;99787.22;4932907;29;20066;-77
2023/07/24 05:27:09;;;;;;;14.98;6.82;;;;;;;19.19;100.00;99784.78;4933584;29;20500;-77
2023/07/24 05:29:36;;;;;;;9.32;6.70;;;;;;;19.50;100.00;99794.16;4933714;29;20052;-77
2023/07/24 05:36:26;;;;;;;9.50;6.50;;;;;;;21.02;96.25;99719.72;4887408;28;20513;-77
2023/07/24 05:41:42;;;;;;;10.50;5.97;;;;;;;22.64;87.02;99744.56;4951004;28;19938;-79
2023/07/24 05:44:10;;;;;;;10.88;6.10;;;;;;;22.37;86.69;99757.13;4953312;28;20083;-77
2023/07/24 05:46:36;;;;;;;9.45;5.93;;;;;;;22.43;85.96;99743.59;4942091;28;20083;-78
2023/07/24 05:49:03;;;;;;;9.43;5.80;;;;;;;22.02;87.08;99758.44;4951701;28;20376;-75
2023/07/24 05:51:30;;;;;;;11.75;6.65;;;;;;;21.44;89.73;99746.63;4934842;29;20054;-78
2023/07/24 05:53:56;;;;;;;11.65;6.22;;;;;;;20.92;91.54;99762.13;4942203;28;20066;-77
2023/07/24 05:56:23;;;;;;;10.85;6.70;;;;;;;21.18;91.06;99768.63;4940757;29;20094;-77
2023/07/24 05:58:50;;;;;;;9.27;6.18;;;;;;;21.85;89.37;99771.81;4938340;28;20051;-76
2023/07/24 06:01:18;;;;;;;9.65;5.93;;;;;;;22.38;87.04;99756.09;4949380;29;20137;-75
2023/07/24 06:03:45;;;;;;;8.63;6.13;;;;;;;23.28;83.16;99740.91;4953857;28;20508;-77
2023/07/24 06:06:11;;;;;;;9.45;5.80;;;;;;;23.12;81.62;99740.88;4947384;28;20051;-77
2023/07/24 06:08:38;;;;;;;9.82;6.00;;;;;;;23.01;81.42;99743.75;4943636;28;20057;-77
2023/07/24 06:11:04;;;;;;;10.82;5.45;;;;;;;22.03;83.35;99753.94;4953413;28;20138;-78
2023/07/24 06:13:31;;;;;;;7.35;5.60;;;;;;;21.91;84.92;99770.03;4952829;28;20058;-74
2023/07/24 06:15:57;;;;;;;6.97;5.63;;;;;;;21.79;85.97;99764.03;4949276;28;20536;-77
2023/07/24 06:18:26;;;;;;;7.32;5.40;;;;;;;21.74;85.80;99756.78;4952734;28;20069;-77
2023/07/24 06:20:53;;;;;;;8.32;5.95;;;;;;;21.90;86.71;99757.75;4950038;28;20143;-78
2023/07/24 06:23:20;;;;;;;8.38;5.57;;;;;;;22.11;85.84;99758.81;4931452;29;20159;-78
2023/07/24 06:25:47;;;;;;;7.20;5.35;;;;;;;21.57;85.13;99761.41;4941897;29;20051;-77
2023/07/24 06:28:13;;;;;;;7.40;5.30;;;;;;;21.24;85.83;99765.00;4953424;28;20081;-79
2023/07/24 06:30:40;;;;;;;6.00;4.75;;;;;;;21.09;86.57;99759.44;4947960;28;20122;-77
2023/07/24 06:33:07;;;;;;;9.93;4.93;;;;;;;20.81;87.83;99768.34;4947446;28;20454;-78
2023/07/24 06:35:35;;;;;;;10.00;5.30;;;;;;;20.81;88.98;99773.66;4945225;29;20135;-79
2023/07/24 06:38:01;;;;;;;5.88;4.55;;;;;;;20.93;89.69;99765.59;4944041;28;20150;-78
2023/07/24 06:40:28;;;;;;;7.47;5.10;;;;;;;20.96;89.61;99765.13;4949963;29;20057;-78
2023/07/24 06:42:54;;;;;;;10.95;5.63;;;;;;;20.77;90.38;99760.09;4941569;29;20122;-79
2023/07/24 06:45:21;;;;;;;9.93;5.47;;;;;;;20.72;90.71;99765.34;4941820;29;20087;-79
2023/07/24 06:47:48;;;;;;;6.10;5.03;;;;;;;20.54;90.03;99758.41;4939583;28;20559;-78
2023/07/24 06:50:14;;;;;;;8.02;5.28;;;;;;;20.50;90.31;99764.44;4938017;29;20083;-77
2023/07/24 06:52:42;;;;;;;8.20;5.55;;;;;;;20.41;90.65;99763.22;4938579;29;20074;-77
2023/07/24 06:55:09;;;;;;;8.95;5.55;;;;;;;20.44;90.04;99749.47;4933480;29;20048;-79
2023/07/24 06:57:36;;;;;;;8.45;5.32;;;;;;;20.52;90.05;99749.06;4943015;29;20119;-78
2023/07/24 07:00:03;;;;;;;9.65;5.18;;;;;;;20.67;88.95;99736.00;4943807;29;20520;-78
2023/07/24 07:02:29;;;;;;;8.98;5.78;;;;;;;21.13;87.52;99740.09;4942025;29;20055;-79
2023/07/24 07:04:56;;;;;;;6.95;5.57;;;;;;;21.32;86.73;99737.16;4941396;28;20052;-79
2023/07/24 07:07:22;;;;;;;6.60;5.13;;;;;;;21.71;84.38;99730.69;4942458;29;20211;-79
2023/07/24 07:09:50;;;;;;;6.80;4.63;;;;;;;21.78;83.36;99730.47;4941526;29;20075;-79
2023/07/24 07:12:17;;;;;;;6.57;4.65;;;;;;;21.73;82.72;99727.78;4941716;29;20425;-78
2023/07/24 07:14:43;;;;;;;8.70;4.43;;;;;;;21.60;83.11;99738.81;4941655;29;20138;-79
2023/07/24 07:17:10;;;;;;;6.30;4.93;;;;;;;21.52;83.15;99732.88;4937853;29;20132;-79
2023/07/24 07:19:37;;;;;;;7.10;5.05;;;;;;;21.32;82.98;99737.94;4944049;29;20127;-78
2023/07/24 07:22:03;;;;;;;7.60;4.68;;;;;;;21.13;84.03;99733.97;4933599;29;20051;-78
2023/07/24 07:24:30;;;;;;;6.05;4.57;;;;;;;21.21;84.23;99738.91;4940167;29;20134;-78
2023/07/24 07:26:58;;;;;;;7.97;4.65;;;;;;;21.16;83.38;99733.47;4937946;28;20048;-78
2023/07/24 07:29:25;;;;;;;7.07;4.63;;;;;;;21.15;83.41;99729.22;4942735;29;20428;-79
2023/07/24 07:31:51;;;;;;;7.55;5.18;;;;;;;20.99;82.80;99727.41;4954058;28;20598;-78
2023/07/24 07:34:18;;;;;;;7.30;4.75;;;;;;;21.14;82.42;99727.59;4958038;28;20142;-78
2023/07/24 07:36:45;;;;;;;7.93;4.65;;;;;;;21.37;81.93;99722.03;4956543;28;20138;-78
2023/07/24 07:39:11;;;;;;;6.88;5.18;;;;;;;21.65;81.46;99726.38;4950279;28;20047;-77
2023/07/24 07:41:38;;;;;;;6.07;4.45;;;;;;;21.65;80.58;99713.06;4956858;28;20137;-78
2023/07/24 07:44:06;;;;;;;8.25;5.05;;;;;;;21.95;80.50;99706.41;4956502;28;20162;-77
2023/07/24 07:46:32;;;;;;;6.40;4.90;;;;;;;22.87;78.59;99695.38;4946144;28;20134;-77
2023/07/24 07:48:59;;;;;;;7.65;5.43;;;;;;;22.96;76.22;99690.34;4956767;28;20047;-78
2023/07/24 07:51:27;;;;;;;6.80;5.05;;;;;;;22.69;77.00;99704.56;4955729;28;20479;-77
2023/07/24 07:53:53;;;;;;;7.15;5.00;;;;;;;22.72;77.55;99703.25;4940266;28;20468;-78
2023/07/24 07:56:20;;;;;;;7.90;5.13;;;;;;;22.65;78.37;99703.50;4954849;28;20135;-78
2023/07/24 07:58:46;;;;;;;11.10;5.30;;;;;;;22.58;77.93;99699.47;4957547;28;20082;-78
2023/07/24 08:01:14;;;;;;;6.43;5.38;;;;;;;22.33;78.74;99689.41;4946105;28;20058;-78
2023/07/24 08:03:41;;;;;;;7.90;5.43;;;;;;;22.54;78.23;99688.50;4956148;29;20075;-77
2023/07/24 08:06:08;;;;;;;8.45;4.75;;;;;;;22.68;78.38;99686.19;4957175;28;20105;-78
2023/07/24 08:08:34;;;;;;;8.38;5.03;;;;;;;22.74;76.95;99677.94;4957753;28;20051;-80
2023/07/24 08:11:05;;;;;;;7.47;5.38;;;;;;;22.64;76.95;99691.22;4954548;28;20055;-78
2023/07/24 08:13:31;;;;;;;8.10;5.97;;;;;;;22.44;77.68;99694.56;4957883;28;20486;-78
2023/07/24 08:15:59;;;;;;;8.50;5.50;;;;;;;22.31;77.43;99695.00;4956564;28;20115;-76
2023/07/24 08:18:27;;;;;;;12.55;5.70;;;;;;;22.18;77.66;99684.78;4955846;28;20102;-80
2023/07/24 08:20:53;;;;;;;7.57;5.10;;;;;;;21.80;78.69;99683.09;4962092;28;20140;-78
2023/07/24 08:23:20;;;;;;;6.75;5.07;;;;;;;21.67;79.79;99681.66;4955931;29;20110;-80
2023/07/24 08:25:53;;;;;;;9.10;4.80;;;;;;;21.76;78.77;99696.09;4950323;28;20070;-78
2023/07/24 08:28:19;;;;;;;7.13;5.13;;;;;;;21.85;79.74;99691.13;4949262;29;20526;-79
2023/07/24 08:30:46;;;;;;;7.35;4.95;;;;;;;21.97;79.52;99683.78;4957115;28;20131;-80
2023/07/24 08:33:13;;;;;;;8.60;5.40;;;;;;;22.27;78.68;99677.09;4955321;29;20052;-82
2023/07/24 08:35:44;;;;;;;7.75;4.90;;;;;;;22.06;78.78;99676.16;4959091;28;20058;-78
2023/07/24 08:38:10;;;;;;;7.55;4.88;;;;;;;22.09;78.70;99679.13;4952611;28;20050;-78
2023/07/24 08:40:39;;;;;;;6.65;4.70;;;;;;;22.00;78.29;99669.97;4957119;29;20137;-78
2023/07/24 08:43:05;;;;;;;6.78;5.13;;;;;;;22.31;78.29;99660.34;4958524;28;20094;-78
2023/07/24 08:45:35;;;;;;;8.15;5.38;;;;;;;22.52;78.08;99661.28;4958796;28;20137;-79
2023/07/24 08:48:02;;;;;;;7.70;4.93;;;;;;;22.80;76.89;99647.59;4943876;29;20115;-78
2023/07/24 08:50:30;;;;;;;8.10;5.20;;;;;;;22.52;77.09;99655.97;4944488;29;20139;-78
2023/07/24 08:52:59;;;;;;;8.20;5.20;;;;;;;22.29;77.32;99651.00;4951969;28;20075;-79
2023/07/24 08:55:26;;;;;;;7.95;4.82;;;;;;;22.31;77.87;99646.22;4951026;28;20485;-78
2023/07/24 08:57:53;;;;;;;7.43;5.07;;;;;;;22.29;78.61;99661.66;4948287;28;20135;-81
2023/07/24 09:00:20;;;;;;;9.85;5.20;;;;;;;22.09;79.74;99668.47;4953413;29;20138;-80
2023/07/24 09:02:46;;;;;;;7.47;5.35;;;;;;;21.92;80.48;99673.09;4943007;29;20051;-81
2023/07/24 09:05:15;;;;;;;6.35;4.90;;;;;;;21.81;80.82;99682.03;4957394;28;20164;-83
2023/07/24 09:07:42;;;;;;;7.43;5.00;;;;;;;21.73;81.47;99674.53;4951581;28;20131;-81
2023/07/24 09:10:11;;;;;;;7.85;5.10;;;;;;;22.02;82.40;99677.72;4950013;29;20137;-79
2023/07/24 09:12:38;;;;;;;10.80;5.15;;;;;;;22.37;82.79;99682.50;4956230;28;20094;-77
2023/07/24 09:15:06;;;;;;;7.18;4.93;;;;;;;22.50;81.25;99682.88;4953847;28;20436;-79
2023/07/24 09:17:33;;;;;;;6.88;5.00;;;;;;;22.44;80.22;99681.22;4956420;28;20130;-79
2023/07/24 09:20:01;;;;;;;7.57;5.70;;;;;;;22.39;80.82;99688.38;4958112;28;20130;-78
2023/07/24 09:22:28;;;;;;;6.15;4.63;;;;;;;22.31;80.84;99670.22;4955629;28;20051;-79
2023/07/24 09:24:56;;;;;;;6.97;5.00;;;;;;;22.48;81.14;99681.53;4947321;28;20158;-79
2023/07/24 09:27:30;;;;;;;7.95;4.82;;;;;;;22.37;80.84;99664.66;5093641;27;1286805;-78
2023/07/24 09:29:57;;;;;;;7.25;4.63;;;;;;;22.17;80.16;99661.88;5126999;28;20061;-77
2023/07/24 09:32:25;;;;;;;7.57;4.82;;;;;;;22.16;79.77;99646.94;5125442;28;20043;-78
2023/07/24 09:34:54;;;;;;;6.45;4.80;;;;;;;22.23;78.95;99641.38;5130073;28;20142;-78
2023/07/24 09:37:28;;;;;;;6.78;4.78;;;;;;;22.40;78.72;99631.38;5127730;28;20130;-79
2023/07/24 09:39:55;;;;;;;8.63;4.80;;;;;;;22.43;79.09;99630.84;5103991;22;20116;-81
2023/07/24 09:42:40;;;;;;;6.57;4.22;;;;;;;22.51;77.79;99617.03;5078684;28;20091;-80
2023/07/24 09:45:10;;;;;;;9.18;4.65;;;;;;;22.62;77.95;99613.38;5078927;28;20108;-80
2023/07/24 09:47:37;;;;;;;8.55;4.65;;;;;;;22.64;76.82;99600.56;5075995;28;20072;-81
2023/07/24 09:50:07;;;;;;;6.47;4.53;;;;;;;22.58;76.14;99595.47;5078091;28;20048;-80
2023/07/24 09:52:46;;;;;;;7.60;4.55;;;;;;;22.79;76.71;99597.19;5078542;28;20044;-79
2023/07/24 09:55:19;;;;;;;7.25;4.20;;;;;;;23.07;75.32;99586.09;5078805;28;20056;-82
2023/07/24 09:57:49;;;;;;;5.75;4.35;;;;;;;22.92;75.76;99583.38;5072613;28;20076;-80
2023/07/24 10:00:16;;;;;;;5.20;4.03;;;;;;;22.80;75.02;99591.59;5072866;28;20552;-80
2023/07/24 10:02:43;;;;;;;6.07;4.10;;;;;;;22.93;74.98;99582.31;5069487;28;20076;-81
2023/07/24 10:05:09;;;;;;;5.28;3.90;;;;;;;22.86;74.93;99581.75;5075333;28;20136;-81
2023/07/24 10:07:36;;;;;;;5.78;3.95;;;;;;;22.99;74.19;99577.78;5064279;28;20054;-80
2023/07/24 10:10:03;;;;;;;6.70;4.30;;;;;;;23.24;74.50;99577.81;5067538;28;20127;-81
2023/07/24 10:12:32;;;;;;;9.77;4.60;;;;;;;23.38;74.27;99578.91;5072520;28;20056;-80
2023/07/24 10:15:01;;;;;;;5.93;4.50;;;;;;;23.63;74.77;99575.47;5074333;28;20064;-84
2023/07/24 10:17:37;;;;;;;4.97;3.83;;;;;;;23.83;72.39;99559.44;5075151;28;20053;-82
2023/07/24 10:20:05;;;;;;;6.57;4.20;;;;;;;24.08;71.34;99550.59;5076404;28;20056;-83
2023/07/24 10:22:32;;;;;;;7.75;4.40;;;;;;;24.15;70.76;99555.66;5075153;28;20079;-83
2023/07/24 10:24:59;;;;;;;7.03;4.38;;;;;;;23.98;70.85;99549.81;5074373;28;20045;-80
2023/07/24 10:27:28;;;;;;;7.43;4.00;;;;;;;24.13;71.42;99561.25;5072318;28;20049;-80
2023/07/24 10:30:03;;;;;;;7.28;4.63;;;;;;;24.00;71.23;99553.84;5070396;28;20052;-81
2023/07/24 10:32:33;;;;;;;6.90;4.30;;;;;;;23.92;71.95;99550.91;5071431;28;20086;-81
2023/07/24 10:35:07;;;;;;;6.47;4.38;;;;;;;24.51;70.78;99552.91;5075589;28;20072;-81
2023/07/24 10:37:35;;;;;;;7.07;4.50;;;;;;;24.77;70.28;99541.81;5069990;28;20044;-82
2023/07/24 10:40:03;;;;;;;6.68;4.35;;;;;;;24.70;68.75;99529.81;5063359;28;20056;-82
2023/07/24 10:42:30;;;;;;;5.15;4.05;;;;;;;24.68;69.58;99548.00;5066934;28;20048;-81
2023/07/24 10:45:05;;;;;;;5.32;4.15;;;;;;;24.69;70.56;99545.06;5063367;28;20063;-83
2023/07/24 10:47:32;;;;;;;5.93;4.32;;;;;;;24.84;69.23;99536.16;5061734;28;20061;-80
2023/07/24 10:50:01;;;;;;;5.63;4.13;;;;;;;24.55;69.96;99533.38;5066429;28;20585;-82
2023/07/24 10:52:34;;;;;;;6.32;4.05;;;;;;;24.35;69.50;99528.09;5063235;28;20045;-82
2023/07/24 10:55:05;;;;;;;5.72;4.25;;;;;;;23.71;71.50;99523.41;5068701;28;20080;-82
2023/07/24 11:00:21;;;;;;;7.45;4.43;;;;;;;24.49;72.51;99521.09;5019470;28;20057;-78
2023/07/24 11:02:58;;;;;;;6.95;3.90;;;;;;;24.85;71.12;99486.13;5053709;28;20053;-80
2023/07/24 11:05:36;;;;;;;4.68;3.92;;;;;;;25.52;69.84;99481.88;5064964;28;20491;-80
2023/07/24 11:08:16;;;;;;;5.43;4.53;;;;;;;25.37;70.66;99480.94;5057914;28;20061;-80
2023/07/24 11:10:56;;;;;;;5.95;4.20;;;;;;;25.64;68.16;99495.72;5064921;28;20112;-81
2023/07/24 11:13:25;;;;;;;5.50;4.50;;;;;;;24.93;68.65;99448.88;5066983;28;20079;-78
2023/07/24 11:15:56;;;;;;;5.15;4.28;;;;;;;25.12;70.02;99457.03;5067293;28;20151;-79
2023/07/24 11:18:30;;;;;;;6.20;4.35;;;;;;;23.94;72.89;99485.44;5065266;28;20108;-80
2023/07/24 11:21:02;;;;;;;6.80;4.50;;;;;;;23.58;74.74;99444.66;5062670;28;20049;-78
2023/07/24 11:23:32;;;;;;;5.90;4.43;;;;;;;23.22;75.90;99461.72;5063200;28;20053;-81
2023/07/24 11:26:00;;;;;;;6.95;4.90;;;;;;;22.68;78.70;99478.19;5063708;28;20131;-80
2023/07/24 11:28:28;;;;;;;8.20;5.20;;;;;;;22.42;82.25;99506.63;5061276;28;20135;-80
2023/07/24 11:31:03;;;;;;;14.98;5.95;;;;;;;22.04;87.66;99527.25;5062334;28;20049;-80
2023/07/24 11:33:30;;;;;;;7.45;4.97;;;;;;;21.56;90.20;99562.03;5065908;28;20495;-80
2023/07/24 11:35:57;;;;;;;13.07;5.30;;;;;;;20.72;93.58;99621.78;5060268;28;20060;-79
2023/07/24 11:38:23;;;;;;;11.50;5.25;;;;;;;18.94;100.00;99663.06;5061784;28;20137;-79